Data for 01/21/2007

Time Sea-Level Adjusted Pressure Absolute Pressure Temperature Relative Humidity Dew Point   
(mb) (inHg) (mb) (inHg) (C) (F) (%) (C) (F)
00:05 1019 30.09 848 25.04 -4.6 23.7 72 -9 15.8
00:10 1019 30.09 848 25.04 -4.6 23.8 73 -8.6 16.4
00:15 1019 30.09 848 25.04 -4.4 24 74 -8.4 16.9
00:20 1019 30.09 849 25.07 -4.3 24.2 72 -8.6 16.5
00:25 1019 30.09 849 25.07 -4.2 24.4 73 -8.4 16.8
00:30 1019 30.09 849 25.07 -4.4 24.1 73 -8.5 16.7
00:35 1019 30.09 849 25.07 -4.5 24 74 -8.5 16.7
00:40 1019 30.09 849 25.07 -4.5 23.8 73 -8.6 16.5
00:45 1020 30.12 849 25.07 -4.5 24 74 -8.5 16.7
00:50 1020 30.12 849 25.07 -4.5 23.9 74 -8.5 16.7
00:55 1020 30.12 849 25.07 -4.4 24.1 75 -8.2 17.3
01:00 1020 30.12 849 25.07 -4.1 24.7 74 -8.1 17.5
01:05 1020 30.12 849 25.07 -4.3 24.2 74 -8.3 17.1
01:10 1020 30.12 849 25.07 -4.5 23.9 75 -8.4 16.9
01:15 1020 30.12 849 25.07 -4.6 23.7 76 -8.2 17.3
01:20 1020 30.12 849 25.07 -4.7 23.6 75 -8.4 16.9
01:25 1020 30.12 849 25.07 -4.7 23.6 75 -8.4 16.9
01:30 1020 30.12 849 25.07 -4.7 23.5 77 -8.2 17.2
01:35 1020 30.12 849 25.07 -4.8 23.3 76 -8.4 16.9
01:40 1020 30.12 849 25.07 -4.9 23.2 77 -8.4 16.9
01:45 1020 30.12 849 25.07 -4.9 23.1 77 -8.3 17.1
01:50 1020 30.12 849 25.07 -4.9 23.2 77 -8.3 17.1
01:55 1020 30.12 849 25.07 -4.9 23.2 77 -8.3 17.1
02:00 1020 30.12 850 25.1 -4.9 23.2 78 -8.1 17.4
02:05 1021 30.15 850 25.1 -5 23 79 -8.2 17.3
02:10 1021 30.15 850 25.1 -5 23.1 79 -8.1 17.4
02:15 1021 30.15 850 25.1 -5 23 79 -8.2 17.2
02:20 1021 30.15 850 25.1 -4.9 23.2 78 -8.2 17.3
02:25 1021 30.15 850 25.1 -4.9 23.2 79 -8 17.5
02:30 1021 30.15 850 25.1 -4.9 23.2 79 -8 17.6
02:35 1021 30.15 850 25.1 -4.8 23.4 77 -8.2 17.3
02:40 1021 30.15 850 25.1 -4.7 23.5 78 -8 17.5
02:45 1021 30.15 850 25.1 -4.7 23.5 78 -8 17.6
02:50 1021 30.15 850 25.1 -4.6 23.7 77 -8 17.6
02:55 1021 30.15 850 25.1 -4.7 23.6 77 -8.1 17.5
03:00 1021 30.15 851 25.13 -4.7 23.6 78 -8 17.7
03:05 1022 30.18 851 25.13 -4.7 23.6 78 -8 17.7
03:10 1022 30.18 851 25.13 -4.7 23.6 78 -8 17.6
03:15 1022 30.18 851 25.13 -4.7 23.5 79 -7.9 17.8
03:20 1022 30.18 851 25.13 -4.8 23.4 79 -7.9 17.7
03:25 1022 30.18 851 25.13 -4.8 23.4 78 -8 17.6
03:30 1022 30.18 851 25.13 -4.6 23.6 79 -7.7 18.1
03:35 1022 30.18 851 25.13 -4.7 23.6 81 -7.5 18.5
03:40 1022 30.18 851 25.13 -4.7 23.5 80 -7.6 18.3
03:45 1022 30.18 851 25.13 -4.7 23.5 82 -7.3 18.8
03:50 1022 30.18 851 25.13 -4.6 23.6 82 -7.3 18.8
03:55 1022 30.18 851 25.13 -4.6 23.8 82 -7.3 18.9
04:00 1022 30.18 851 25.13 -4.7 23.6 82 -7.3 18.9
04:05 1022 30.18 851 25.13 -4.6 23.8 82 -7.1 19.2
04:10 1022 30.18 851 25.13 -4.6 23.8 82 -7.1 19.2
04:15 1022 30.18 851 25.13 -4.7 23.5 83 -7.2 19
04:20 1022 30.18 851 25.13 -4.9 23.2 83 -7.3 18.8
04:25 1022 30.18 851 25.13 -5 23 84 -7.3 18.9
04:30 1022 30.18 851 25.13 -5.1 22.9 84 -7.3 18.8
04:35 1022 30.18 851 25.13 -5 22.9 84 -7.3 18.8
04:40 1022 30.18 851 25.13 -5 23 84 -7.3 18.9
04:45 1022 30.18 852 25.16 -5 23 85 -7.2 19.1
04:50 1022 30.18 852 25.16 -5 23 85 -7.2 19.1
04:55 1023 30.21 852 25.16 -4.9 23.1 85 -7.2 19.1
05:00 1023 30.21 852 25.16 -4.9 23.2 85 -7 19.4
05:05 1023 30.21 852 25.16 -4.9 23.2 86 -6.9 19.6
05:10 1023 30.21 852 25.16 -5 23 87 -6.8 19.8
05:15 1023 30.21 852 25.16 -5 23.1 89 -6.6 20.2
05:20 1023 30.21 852 25.16 -4.9 23.1 89 -6.4 20.4
05:25 1023 30.21 852 25.16 -5 23.1 90 -6.4 20.5
05:30 1023 30.21 852 25.16 -5.2 22.7 91 -6.4 20.5
05:35 1023 30.21 852 25.16 -5.2 22.6 92 -6.4 20.5
05:40 1023 30.21 852 25.16 -5.2 22.6 92 -6.4 20.5
05:45 1023 30.21 852 25.16 -5.3 22.5 92 -6.4 20.5
05:50 1023 30.21 852 25.16 -5.3 22.5 92 -6.4 20.5
05:55 1023 30.21 852 25.16 -5.2 22.7 92 -6.4 20.5
06:00 1023 30.21 852 25.16 -5.3 22.5 92 -6.4 20.5
06:05 1023 30.21 852 25.16 -5.2 22.7 91 -6.4 20.4
06:10 1023 30.21 852 25.16 -5.2 22.6 91 -6.5 20.3
06:15 1023 30.21 852 25.16 -5.2 22.6 90 -6.6 20.2
06:20 1023 30.21 852 25.16 -5.3 22.5 90 -6.6 20.1
06:25 1023 30.21 852 25.16 -5.4 22.3 91 -6.7 20
06:30 1023 30.21 852 25.16 -5.6 21.9 91 -6.8 19.7
06:35 1023 30.21 852 25.16 -5.7 21.8 91 -7 19.5
06:40 1023 30.21 852 25.16 -5.6 21.9 90 -7 19.4
06:45 1023 30.21 852 25.16 -5.8 21.6 91 -7.1 19.2
06:50 1023 30.21 852 25.16 -5.8 21.6 90 -7.1 19.2
06:55 1023 30.21 852 25.16 -5.7 21.8 90 -7.1 19.3
07:00 1023 30.21 852 25.16 -5.5 22.1 89 -7.1 19.2
07:05 1023 30.21 852 25.16 -5.4 22.2 89 -7 19.3
07:10 1023 30.21 852 25.16 -5.4 22.2 88 -7.1 19.3
07:15 1023 30.21 852 25.16 -5.5 22.2 88 -7.1 19.2
07:20 1023 30.21 852 25.16 -5.5 22.1 88 -7.1 19.2
07:25 1023 30.21 852 25.16 -5.4 22.4 87 -7.1 19.2
07:30 1023 30.21 852 25.16 -5.3 22.5 86 -7.2 19
07:35 1023 30.21 852 25.16 -5.2 22.6 85 -7.3 18.8
07:40 1023 30.21 852 25.16 -5.2 22.6 85 -7.3 18.8
07:45 1023 30.21 852 25.16 -5.4 22.3 86 -7.4 18.6
07:50 1023 30.21 852 25.16 -5.5 22.1 86 -7.4 18.6
07:55 1023 30.21 852 25.16 -5.5 22 86 -7.5 18.6
08:00 1023 30.21 853 25.19 -5.4 22.2 85 -7.5 18.4
08:05 1023 30.21 853 25.19 -5.3 22.4 85 -7.5 18.6
08:10 1023 30.21 853 25.19 -5.4 22.3 85 -7.5 18.5
08:15 1024 30.24 853 25.19 -5.3 22.4 85 -7.5 18.5
08:20 1024 30.24 853 25.19 -5.3 22.5 84 -7.5 18.5
08:25 1024 30.24 853 25.19 -5.2 22.6 84 -7.6 18.4
08:30 1024 30.24 853 25.19 -5.1 22.8 83 -7.6 18.4
08:35 1024 30.24 853 25.19 -5.1 22.9 83 -7.6 18.4
08:40 1024 30.24 853 25.19 -5 22.9 82 -7.6 18.3
08:45 1023 30.21 853 25.19 -5 23 82 -7.7 18.2
08:50 1023 30.21 853 25.19 -5 23.1 81 -7.8 18
08:55 1023 30.21 853 25.19 -5.1 22.9 82 -7.7 18.1
09:00 1024 30.24 853 25.19 -5.1 22.7 81 -7.9 17.8
09:05 1024 30.24 853 25.19 -5 23 80 -8 17.7
09:10 1024 30.24 853 25.19 -4.7 23.5 78 -8.1 17.5
09:15 1024 30.24 853 25.19 -4.3 24.4 74 -8.3 17.1
09:20 1024 30.24 853 25.19 -3.5 25.8 70 -8.2 17.2
09:25 1024 30.24 853 25.19 -3.4 25.9 69 -8.4 16.9
09:30 1024 30.24 853 25.19 -3.7 25.3 70 -8.5 16.8
09:35 1024 30.24 853 25.19 -3.6 25.4 69 -8.5 16.7
09:40 1024 30.24 853 25.19 -3.8 25.1 70 -8.5 16.7
09:45 1024 30.24 853 25.19 -4 24.7 71 -8.5 16.6
09:50 1024 30.24 853 25.19 -3.7 25.4 69 -8.5 16.7
09:55 1024 30.24 853 25.19 -3.1 26.4 66 -8.5 16.6
10:00 1024 30.24 853 25.19 -3 26.7 65 -8.7 16.4
10:05 1024 30.24 853 25.19 -2.6 27.4 63 -8.6 16.4
10:10 1024 30.24 853 25.19 -2.5 27.5 62 -8.8 16.2
10:15 1024 30.24 853 25.19 -2.7 27.1 65 -8.3 17
10:20 1024 30.24 853 25.19 -3.2 26.3 66 -8.6 16.5
10:25 1024 30.24 853 25.19 -3.5 25.7 66 -9 15.7
10:30 1024 30.24 853 25.19 -2.9 26.7 62 -9.2 15.5
10:35 1024 30.24 853 25.19 -2.1 28.2 60 -8.9 16
10:40 1024 30.24 853 25.19 -1.9 28.6 59 -8.8 16.1
10:45 1024 30.24 853 25.19 -1.5 29.3 57 -8.8 16.1
10:50 1024 30.24 853 25.19 -1.2 29.8 56 -8.9 16
10:55 1024 30.24 853 25.19 -0.8 30.5 55 -8.9 16
11:00 1024 30.24 853 25.19 -0.3 31.5 53 -8.8 16.1
11:05 1024 30.24 853 25.19 0 32 52 -8.8 16.1
11:10 1024 30.24 853 25.19 0.3 32.6 51 -8.7 16.3
11:15 1024 30.24 853 25.19 0.3 32.5 51 -8.6 16.6
11:20 1024 30.24 853 25.19 -0.4 31.3 54 -8.6 16.5
11:25 1024 30.24 853 25.19 -0.8 30.6 56 -8.6 16.5
11:30 1024 30.24 853 25.19 -1.1 30 56 -8.7 16.3
11:35 1024 30.24 853 25.19 -0.8 30.6 56 -8.5 16.7
11:40 1024 30.24 853 25.19 -0.9 30.3 56 -8.7 16.4
11:45 1024 30.24 853 25.19 -1.1 29.9 56 -8.8 16.2
11:50 1023 30.21 853 25.19 -0.9 30.3 54 -9.2 15.5
11:55 1023 30.21 853 25.19 -1.2 29.9 56 -8.8 16.1
12:00 1023 30.21 853 25.19 -1.3 29.6 56 -9.1 15.6
12:05 1023 30.21 852 25.16 -1.3 29.6 55 -9.2 15.4
12:10 1023 30.21 852 25.16 -0.7 30.7 52 -9.5 14.9
12:15 1023 30.21 852 25.16 -1.4 29.4 56 -9.2 15.4
12:20 1023 30.21 852 25.16 -2.4 27.7 58 -9.7 14.6
12:25 1023 30.21 852 25.16 -2.5 27.4 56 -10 13.9
12:30 1023 30.21 852 25.16 -2.4 27.7 57 -9.9 14.2
12:35 1023 30.21 852 25.16 -1.4 29.5 53 -9.8 14.3
12:40 1023 30.21 852 25.16 -1 30.1 52 -9.8 14.4
12:45 1023 30.21 852 25.16 -1.4 29.4 53 -9.8 14.3
12:50 1023 30.21 852 25.16 -1.4 29.5 52 -10 14
12:55 1023 30.21 852 25.16 -1.5 29.2 53 -9.8 14.3
13:00 1023 30.21 852 25.16 -1.6 29.1 54 -9.8 14.3
13:05 1023 30.21 852 25.16 -1.8 28.8 53 -10.1 13.8
13:10 1023 30.21 852 25.16 -1.6 29.2 52 -10.2 13.7
13:15 1023 30.21 852 25.16 -1.2 29.9 51 -10.2 13.7
13:20 1022 30.18 852 25.16 -1.3 29.6 51 -10.2 13.7
13:25 1022 30.18 852 25.16 -1.8 28.7 51 -10.6 13
13:30 1022 30.18 852 25.16 -2.7 27.2 54 -10.7 12.8
13:35 1022 30.18 852 25.16 -2.8 27 53 -11 12.2
13:40 1022 30.18 852 25.16 -2.6 27.3 52 -11.2 11.9
13:45 1022 30.18 852 25.16 -2.4 27.7 52 -11.1 12.1
13:50 1022 30.18 852 25.16 -2 28.4 49 -11.4 11.5
13:55 1022 30.18 852 25.16 -1.7 29 47 -11.5 11.2
14:00 1022 30.18 852 25.16 -0.6 30.9 43 -11.6 11.1
14:05 1022 30.18 852 25.16 0 32 42 -11.3 11.7
14:10 1022 30.18 852 25.16 0.6 33 41 -11.3 11.7
14:15 1022 30.18 852 25.16 0.4 32.8 42 -10.9 12.3
14:20 1022 30.18 852 25.16 0.1 32.1 42 -11.3 11.7
14:25 1022 30.18 852 25.16 0.1 32.2 42 -11.4 11.5
14:30 1022 30.18 852 25.16 0.5 32.9 42 -11.1 12
14:35 1022 30.18 852 25.16 0.9 33.6 40 -11.3 11.6
14:40 1022 30.18 852 25.16 0.9 33.6 40 -11.1 11.9
14:45 1022 30.18 852 25.16 0.5 32.8 42 -11.1 12.1
14:50 1022 30.18 852 25.16 0.6 33.1 40 -11.5 11.4
14:55 1022 30.18 852 25.16 0.6 33 41 -11.2 11.9
15:00 1022 30.18 852 25.16 0.4 32.6 41 -11.4 11.4
15:05 1022 30.18 852 25.16 0.2 32.3 41 -11.6 11.1
15:10 1022 30.18 852 25.16 0.2 32.4 40 -11.7 10.9
15:15 1022 30.18 852 25.16 0.1 32.1 42 -11.5 11.3
15:20 1022 30.18 851 25.13 0.3 32.5 40 -12 10.5
15:25 1022 30.18 851 25.13 0 32.1 41 -11.8 10.8
15:30 1022 30.18 851 25.13 0.2 32.3 39 -12.4 9.7
15:35 1022 30.18 851 25.13 0 32 40 -12 10.5
15:40 1022 30.18 851 25.13 -0.2 31.7 38 -12.7 9.2
15:45 1022 30.18 851 25.13 -0.2 31.7 39 -12.6 9.3
15:50 1022 30.18 851 25.13 -0.1 31.9 39 -12.4 9.6
15:55 1022 30.18 851 25.13 -0.4 31.3 42 -12 10.5
16:00 1022 30.18 851 25.13 -0.3 31.4 41 -12.1 10.3
16:05 1022 30.18 851 25.13 0.1 32.1 40 -12.1 10.2
16:10 1022 30.18 851 25.13 0.2 32.3 39 -12.3 9.9
16:15 1022 30.18 851 25.13 0 32 39 -12.2 10
16:20 1022 30.18 851 25.13 0.1 32.2 40 -11.9 10.6
16:25 1022 30.18 851 25.13 -0.1 31.8 40 -12.1 10.2
16:30 1022 30.18 851 25.13 -0.2 31.6 41 -12 10.4
16:35 1022 30.18 851 25.13 -0.3 31.5 40 -12.3 9.8
16:40 1022 30.18 851 25.13 -0.5 31.1 42 -12 10.3
16:45 1022 30.18 851 25.13 -0.9 30.4 43 -11.9 10.6
16:50 1022 30.18 851 25.13 -2.4 27.6 48 -12.1 10.3
16:55 1022 30.18 851 25.13 -3.6 25.6 50 -12.5 9.5
17:00 1022 30.18 851 25.13 -3.6 25.6 52 -12.2 10.1
17:05 1022 30.18 851 25.13 -4.1 24.6 56 -11.6 11.2
17:10 1022 30.18 851 25.13 -4.6 23.7 59 -11.4 11.4
17:15 1022 30.18 851 25.13 -4.6 23.8 59 -11.4 11.4
17:20 1022 30.18 851 25.13 -4.6 23.8 59 -11.5 11.4
17:25 1022 30.18 851 25.13 -4.6 23.7 64 -10.5 13.1
17:30 1022 30.18 851 25.13 -5 23 65 -10.6 13
17:35 1021 30.15 851 25.13 -5 23 62 -11.1 12
17:40 1021 30.15 851 25.13 -5.4 22.3 65 -10.9 12.4
17:45 1021 30.15 851 25.13 -5.7 21.7 70 -10.4 13.2
17:50 1021 30.15 851 25.13 -5.8 21.5 69 -10.7 12.7
17:55 1021 30.15 851 25.13 -5.9 21.4 68 -10.9 12.4
18:00 1022 30.18 851 25.13 -5.9 21.4 68 -10.8 12.5
18:05 1021 30.15 851 25.13 -5.7 21.7 68 -10.7 12.7
18:10 1021 30.15 851 25.13 -5.6 22 65 -11 12.1
18:15 1021 30.15 851 25.13 -5.4 22.2 66 -10.9 12.4
18:20 1021 30.15 851 25.13 -5.2 22.6 65 -10.8 12.5
18:25 1021 30.15 851 25.13 -5.3 22.5 64 -11.1 12
18:30 1021 30.15 851 25.13 -5.3 22.4 64 -11.2 11.9
18:35 1021 30.15 851 25.13 -5.4 22.2 63 -11.4 11.5
18:40 1021 30.15 851 25.13 -5.8 21.6 65 -11.4 11.4
18:45 1021 30.15 851 25.13 -5.9 21.5 67 -11 12.3
18:50 1021 30.15 851 25.13 -5.4 22.2 62 -11.6 11
18:55 1021 30.15 851 25.13 -5.3 22.5 60 -12 10.4
19:00 1022 30.18 851 25.13 -5.5 22.2 59 -12.3 9.9
19:05 1022 30.18 851 25.13 -5.9 21.4 59 -12.6 9.3
19:10 1022 30.18 851 25.13 -6.3 20.7 60 -12.8 8.9
19:15 1022 30.18 851 25.13 -6.4 20.6 59 -13.1 8.5
19:20 1022 30.18 851 25.13 -6.3 20.7 58 -13.1 8.3
19:25 1022 30.18 851 25.13 -6.2 20.9 58 -13.2 8.2
19:30 1022 30.18 851 25.13 -6.5 20.3 59 -13.1 8.3
19:35 1021 30.15 851 25.13 -6.8 19.8 59 -13.5 7.6
19:40 1021 30.15 851 25.13 -6.5 20.4 57 -13.6 7.5
19:45 1022 30.18 851 25.13 -6.7 20 57 -13.8 7.2
19:50 1021 30.15 851 25.13 -6.9 19.6 58 -13.9 7
19:55 1021 30.15 851 25.13 -7.5 18.5 61 -13.9 7
20:00 1021 30.15 851 25.13 -7.7 18.1 62 -13.8 7.1
20:05 1021 30.15 851 25.13 -7.5 18.4 61 -13.8 7.2
20:10 1021 30.15 851 25.13 -7.3 18.8 62 -13.5 7.7
20:15 1022 30.18 851 25.13 -7.2 19 61 -13.5 7.7
20:20 1022 30.18 851 25.13 -7 19.3 61 -13.3 8
20:25 1022 30.18 851 25.13 -6.9 19.6 61 -13.2 8.2
20:30 1022 30.18 851 25.13 -6.7 19.9 65 -12.3 9.8
20:35 1022 30.18 851 25.13 -6.9 19.6 64 -12.7 9.1
20:40 1022 30.18 851 25.13 -6.5 20.2 63 -12.4 9.7
20:45 1022 30.18 851 25.13 -6.4 20.4 62 -12.6 9.3
20:50 1022 30.18 851 25.13 -6.3 20.7 60 -12.8 9
20:55 1022 30.18 851 25.13 -6.1 20.9 59 -12.9 8.8
21:00 1022 30.18 851 25.13 -6.2 20.9 59 -12.8 8.9
21:05 1022 30.18 851 25.13 -6 21.1 58 -13 8.7
21:10 1022 30.18 851 25.13 -5.7 21.7 58 -12.8 9
21:15 1022 30.18 851 25.13 -5.5 22.1 58 -12.6 9.3
21:20 1022 30.18 851 25.13 -5.3 22.4 56 -12.7 9.1
21:25 1022 30.18 851 25.13 -5.1 22.9 54 -13 8.6
21:30 1022 30.18 851 25.13 -5 23 54 -12.9 8.8
21:35 1022 30.18 851 25.13 -5.5 22.1 54 -13.4 8
21:40 1022 30.18 851 25.13 -5.6 21.8 54 -13.5 7.7
21:45 1022 30.18 851 25.13 -5.7 21.8 55 -13.3 8
21:50 1022 30.18 851 25.13 -5.5 22.1 54 -13.3 8.1
21:55 1022 30.18 851 25.13 -5.4 22.3 56 -12.9 8.7
22:00 1022 30.18 851 25.13 -5.1 22.9 54 -12.9 8.7
22:05 1022 30.18 851 25.13 -4.9 23.1 55 -12.7 9.1
22:10 1022 30.18 851 25.13 -4.9 23.2 54 -12.7 9.1
22:15 1022 30.18 851 25.13 -4.8 23.3 56 -12.4 9.7
22:20 1022 30.18 851 25.13 -4.8 23.4 56 -12.3 9.8
22:25 1022 30.18 851 25.13 -4.8 23.3 56 -12.4 9.8
22:30 1022 30.18 851 25.13 -5 23 57 -12.3 9.9
22:35 1022 30.18 851 25.13 -5 23 56 -12.5 9.5
22:40 1022 30.18 851 25.13 -4.9 23.3 57 -12.2 10.1
22:45 1022 30.18 851 25.13 -4.8 23.4 57 -12 10.5
22:50 1022 30.18 851 25.13 -4.7 23.5 58 -11.7 10.9
22:55 1022 30.18 851 25.13 -4.7 23.6 56 -12.2 10.1
23:00 1022 30.18 851 25.13 -4.6 23.7 56 -12.2 10.1
23:05 1022 30.18 851 25.13 -4.6 23.8 57 -12 10.5
23:10 1022 30.18 852 25.16 -4.8 23.3 59 -11.6 11
23:15 1022 30.18 852 25.16 -4.8 23.4 58 -11.8 10.8
23:20 1022 30.18 852 25.16 -4.8 23.4 57 -12 10.4
23:25 1022 30.18 852 25.16 -4.8 23.4 57 -12.1 10.2
23:30 1022 30.18 852 25.16 -4.8 23.4 57 -12.1 10.2
23:35 1022 30.18 852 25.16 -5 22.9 58 -12 10.3
23:40 1022 30.18 852 25.16 -4.8 23.4 57 -12 10.4
23:45 1022 30.18 852 25.16 -4.8 23.3 58 -11.9 10.7
23:50 1022 30.18 852 25.16 -4.7 23.6 58 -11.8 10.8
23:55 1023 30.21 852 25.16 -4.8 23.3 60 -11.4 11.4
24:00 1023 30.21 852 25.16 -4.9 23.2 60 -11.6 11.1